sensor_id;sensor_type;location;lat;lon;timestamp;P1;durP1;ratioP1;P2;durP2;ratioP2
20497;SDS011;10407;53.238;10.448;2023-06-22T00:01:32;106.20;;;36.37;;
20497;SDS011;10407;53.238;10.448;2023-06-22T00:04:01;106.43;;;40.00;;
20497;SDS011;10407;53.238;10.448;2023-06-22T00:06:28;108.67;;;44.87;;
20497;SDS011;10407;53.238;10.448;2023-06-22T00:08:56;106.47;;;40.40;;
20497;SDS011;10407;53.238;10.448;2023-06-22T00:11:23;109.40;;;39.93;;
20497;SDS011;10407;53.238;10.448;2023-06-22T00:13:51;105.27;;;37.20;;
20497;SDS011;10407;53.238;10.448;2023-06-22T00:16:18;104.80;;;34.33;;
20497;SDS011;10407;53.238;10.448;2023-06-22T00:18:46;105.37;;;36.13;;
20497;SDS011;10407;53.238;10.448;2023-06-22T00:21:14;104.63;;;32.37;;
20497;SDS011;10407;53.238;10.448;2023-06-22T00:23:42;101.73;;;31.10;;
20497;SDS011;10407;53.238;10.448;2023-06-22T00:26:09;105.33;;;32.70;;
20497;SDS011;10407;53.238;10.448;2023-06-22T00:28:37;110.17;;;38.67;;
20497;SDS011;10407;53.238;10.448;2023-06-22T00:31:04;105.30;;;39.20;;
20497;SDS011;10407;53.238;10.448;2023-06-22T00:33:32;105.77;;;38.80;;
20497;SDS011;10407;53.238;10.448;2023-06-22T00:36:00;106.50;;;36.30;;
20497;SDS011;10407;53.238;10.448;2023-06-22T00:38:28;104.27;;;34.63;;
20497;SDS011;10407;53.238;10.448;2023-06-22T00:40:57;105.67;;;35.63;;
20497;SDS011;10407;53.238;10.448;2023-06-22T00:43:24;113.93;;;43.00;;
20497;SDS011;10407;53.238;10.448;2023-06-22T00:45:52;101.87;;;30.77;;
20497;SDS011;10407;53.238;10.448;2023-06-22T00:48:22;100.77;;;28.23;;
20497;SDS011;10407;53.238;10.448;2023-06-22T00:50:50;101.07;;;28.23;;
20497;SDS011;10407;53.238;10.448;2023-06-22T00:53:19;101.73;;;23.20;;
20497;SDS011;10407;53.238;10.448;2023-06-22T00:55:47;97.57;;;22.80;;
20497;SDS011;10407;53.238;10.448;2023-06-22T00:58:17;105.17;;;35.73;;
20497;SDS011;10407;53.238;10.448;2023-06-22T01:00:47;103.67;;;32.10;;
20497;SDS011;10407;53.238;10.448;2023-06-22T01:03:15;104.93;;;32.70;;
20497;SDS011;10407;53.238;10.448;2023-06-22T01:05:43;100.97;;;28.13;;
20497;SDS011;10407;53.238;10.448;2023-06-22T01:11:45;102.97;;;31.87;;
20497;SDS011;10407;53.238;10.448;2023-06-22T01:14:23;100.00;;;27.60;;
20497;SDS011;10407;53.238;10.448;2023-06-22T01:16:47;106.70;;;35.50;;
20497;SDS011;10407;53.238;10.448;2023-06-22T01:22:15;107.07;;;36.73;;
20497;SDS011;10407;53.238;10.448;2023-06-22T01:30:10;110.43;;;43.07;;
20497;SDS011;10407;53.238;10.448;2023-06-22T01:32:38;106.10;;;37.00;;
20497;SDS011;10407;53.238;10.448;2023-06-22T01:35:07;106.47;;;35.50;;
20497;SDS011;10407;53.238;10.448;2023-06-22T01:37:37;108.73;;;39.50;;
20497;SDS011;10407;53.238;10.448;2023-06-22T01:40:05;103.53;;;32.53;;
20497;SDS011;10407;53.238;10.448;2023-06-22T01:42:35;102.30;;;30.07;;
20497;SDS011;10407;53.238;10.448;2023-06-22T01:45:05;102.37;;;28.77;;
20497;SDS011;10407;53.238;10.448;2023-06-22T01:47:33;103.27;;;31.93;;
20497;SDS011;10407;53.238;10.448;2023-06-22T01:50:01;98.67;;;24.20;;
20497;SDS011;10407;53.238;10.448;2023-06-22T01:52:29;100.67;;;29.93;;
20497;SDS011;10407;53.238;10.448;2023-06-22T01:54:58;106.20;;;31.33;;
20497;SDS011;10407;53.238;10.448;2023-06-22T01:57:26;103.90;;;29.13;;
20497;SDS011;10407;53.238;10.448;2023-06-22T02:00:02;105.30;;;35.60;;
20497;SDS011;10407;53.238;10.448;2023-06-22T02:02:53;99.60;;;27.20;;
20497;SDS011;10407;53.238;10.448;2023-06-22T02:05:23;97.53;;;23.90;;
20497;SDS011;10407;53.238;10.448;2023-06-22T02:07:54;104.13;;;28.43;;
20497;SDS011;10407;53.238;10.448;2023-06-22T02:10:36;100.07;;;26.70;;
20497;SDS011;10407;53.238;10.448;2023-06-22T02:13:07;100.70;;;27.27;;
20497;SDS011;10407;53.238;10.448;2023-06-22T02:15:36;112.40;;;52.83;;
20497;SDS011;10407;53.238;10.448;2023-06-22T02:18:04;100.07;;;24.57;;
20497;SDS011;10407;53.238;10.448;2023-06-22T02:20:32;102.53;;;28.53;;
20497;SDS011;10407;53.238;10.448;2023-06-22T02:23:01;104.30;;;34.63;;
20497;SDS011;10407;53.238;10.448;2023-06-22T02:25:29;101.87;;;31.10;;
20497;SDS011;10407;53.238;10.448;2023-06-22T02:27:57;104.73;;;35.57;;
20497;SDS011;10407;53.238;10.448;2023-06-22T02:30:25;109.23;;;37.13;;
20497;SDS011;10407;53.238;10.448;2023-06-22T02:32:52;111.77;;;46.63;;
20497;SDS011;10407;53.238;10.448;2023-06-22T02:35:26;104.47;;;34.57;;
20497;SDS011;10407;53.238;10.448;2023-06-22T02:38:03;100.23;;;26.13;;
20497;SDS011;10407;53.238;10.448;2023-06-22T02:40:26;103.37;;;30.60;;
20497;SDS011;10407;53.238;10.448;2023-06-22T02:42:55;99.00;;;26.80;;
20497;SDS011;10407;53.238;10.448;2023-06-22T02:45:26;96.57;;;20.97;;
20497;SDS011;10407;53.238;10.448;2023-06-22T02:47:54;98.87;;;22.80;;
20497;SDS011;10407;53.238;10.448;2023-06-22T02:50:22;99.47;;;18.00;;
20497;SDS011;10407;53.238;10.448;2023-06-22T02:52:50;98.47;;;19.57;;
20497;SDS011;10407;53.238;10.448;2023-06-22T02:55:18;96.87;;;19.53;;
20497;SDS011;10407;53.238;10.448;2023-06-22T02:57:45;96.30;;;19.07;;
20497;SDS011;10407;53.238;10.448;2023-06-22T03:00:13;94.47;;;15.77;;
20497;SDS011;10407;53.238;10.448;2023-06-22T03:02:44;92.93;;;13.50;;
20497;SDS011;10407;53.238;10.448;2023-06-22T03:05:13;92.17;;;14.57;;
20497;SDS011;10407;53.238;10.448;2023-06-22T03:07:47;94.37;;;17.00;;
20497;SDS011;10407;53.238;10.448;2023-06-22T03:10:12;93.80;;;15.80;;
20497;SDS011;10407;53.238;10.448;2023-06-22T03:12:41;98.23;;;17.20;;
20497;SDS011;10407;53.238;10.448;2023-06-22T03:15:10;94.07;;;15.90;;
20497;SDS011;10407;53.238;10.448;2023-06-22T03:17:39;92.87;;;14.70;;
20497;SDS011;10407;53.238;10.448;2023-06-22T03:20:07;92.77;;;13.90;;
20497;SDS011;10407;53.238;10.448;2023-06-22T03:22:42;100.10;;;24.17;;
20497;SDS011;10407;53.238;10.448;2023-06-22T03:25:07;93.07;;;13.87;;
20497;SDS011;10407;53.238;10.448;2023-06-22T03:27:42;93.90;;;15.80;;
20497;SDS011;10407;53.238;10.448;2023-06-22T03:30:14;95.40;;;15.23;;
20497;SDS011;10407;53.238;10.448;2023-06-22T03:36:04;91.80;;;12.20;;
20497;SDS011;10407;53.238;10.448;2023-06-22T03:38:32;96.00;;;18.27;;
20497;SDS011;10407;53.238;10.448;2023-06-22T03:40:59;94.43;;;13.20;;
20497;SDS011;10407;53.238;10.448;2023-06-22T03:43:27;92.60;;;13.47;;
20497;SDS011;10407;53.238;10.448;2023-06-22T03:45:54;95.07;;;11.90;;
20497;SDS011;10407;53.238;10.448;2023-06-22T03:48:22;92.20;;;13.13;;
20497;SDS011;10407;53.238;10.448;2023-06-22T03:50:49;94.73;;;13.70;;
20497;SDS011;10407;53.238;10.448;2023-06-22T03:53:17;92.97;;;13.13;;
20497;SDS011;10407;53.238;10.448;2023-06-22T03:55:48;92.50;;;11.97;;
20497;SDS011;10407;53.238;10.448;2023-06-22T03:58:17;94.37;;;12.60;;
20497;SDS011;10407;53.238;10.448;2023-06-22T04:00:46;93.27;;;13.57;;
20497;SDS011;10407;53.238;10.448;2023-06-22T04:03:15;91.87;;;11.53;;
20497;SDS011;10407;53.238;10.448;2023-06-22T04:05:44;91.37;;;12.00;;
20497;SDS011;10407;53.238;10.448;2023-06-22T04:08:13;90.93;;;12.10;;
20497;SDS011;10407;53.238;10.448;2023-06-22T04:10:42;96.53;;;12.20;;
20497;SDS011;10407;53.238;10.448;2023-06-22T04:13:10;93.00;;;11.97;;
20497;SDS011;10407;53.238;10.448;2023-06-22T04:15:38;91.07;;;11.93;;
20497;SDS011;10407;53.238;10.448;2023-06-22T04:18:05;94.83;;;12.43;;
20497;SDS011;10407;53.238;10.448;2023-06-22T04:20:33;96.77;;;13.17;;
20497;SDS011;10407;53.238;10.448;2023-06-22T04:23:00;94.03;;;12.10;;
20497;SDS011;10407;53.238;10.448;2023-06-22T04:25:28;97.60;;;14.10;;
20497;SDS011;10407;53.238;10.448;2023-06-22T04:27:55;93.47;;;12.00;;
20497;SDS011;10407;53.238;10.448;2023-06-22T04:30:23;92.07;;;11.63;;
20497;SDS011;10407;53.238;10.448;2023-06-22T04:32:50;92.60;;;11.27;;
20497;SDS011;10407;53.238;10.448;2023-06-22T04:35:24;92.37;;;11.77;;
20497;SDS011;10407;53.238;10.448;2023-06-22T04:37:52;95.50;;;12.87;;
20497;SDS011;10407;53.238;10.448;2023-06-22T04:40:22;90.60;;;11.73;;
20497;SDS011;10407;53.238;10.448;2023-06-22T04:42:49;92.77;;;11.40;;
20497;SDS011;10407;53.238;10.448;2023-06-22T04:45:20;91.37;;;11.20;;
20497;SDS011;10407;53.238;10.448;2023-06-22T04:47:48;90.80;;;10.80;;
20497;SDS011;10407;53.238;10.448;2023-06-22T04:50:16;89.70;;;10.27;;
20497;SDS011;10407;53.238;10.448;2023-06-22T04:52:45;94.50;;;11.93;;
20497;SDS011;10407;53.238;10.448;2023-06-22T04:55:12;91.23;;;11.73;;
20497;SDS011;10407;53.238;10.448;2023-06-22T04:57:42;90.10;;;11.30;;
20497;SDS011;10407;53.238;10.448;2023-06-22T05:00:12;94.47;;;11.83;;
20497;SDS011;10407;53.238;10.448;2023-06-22T05:02:42;91.97;;;11.73;;
20497;SDS011;10407;53.238;10.448;2023-06-22T05:05:12;92.37;;;12.47;;
20497;SDS011;10407;53.238;10.448;2023-06-22T05:07:46;92.70;;;12.97;;
20497;SDS011;10407;53.238;10.448;2023-06-22T05:13:08;96.43;;;12.10;;
20497;SDS011;10407;53.238;10.448;2023-06-22T05:15:36;93.70;;;12.20;;
20497;SDS011;10407;53.238;10.448;2023-06-22T05:18:06;91.23;;;10.97;;
20497;SDS011;10407;53.238;10.448;2023-06-22T05:20:33;92.17;;;11.50;;
20497;SDS011;10407;53.238;10.448;2023-06-22T05:23:02;94.40;;;11.43;;
20497;SDS011;10407;53.238;10.448;2023-06-22T05:25:29;90.57;;;10.73;;
20497;SDS011;10407;53.238;10.448;2023-06-22T05:27:58;94.27;;;10.70;;
20497;SDS011;10407;53.238;10.448;2023-06-22T05:30:26;91.87;;;11.60;;
20497;SDS011;10407;53.238;10.448;2023-06-22T05:32:54;93.07;;;11.10;;
20497;SDS011;10407;53.238;10.448;2023-06-22T05:35:21;91.47;;;10.40;;
20497;SDS011;10407;53.238;10.448;2023-06-22T05:37:49;90.87;;;10.57;;
20497;SDS011;10407;53.238;10.448;2023-06-22T05:40:17;91.73;;;9.63;;
20497;SDS011;10407;53.238;10.448;2023-06-22T05:42:44;92.73;;;11.30;;
20497;SDS011;10407;53.238;10.448;2023-06-22T05:45:12;90.37;;;10.60;;
20497;SDS011;10407;53.238;10.448;2023-06-22T05:47:39;96.90;;;12.67;;
20497;SDS011;10407;53.238;10.448;2023-06-22T05:50:07;92.07;;;12.00;;
20497;SDS011;10407;53.238;10.448;2023-06-22T05:52:35;92.97;;;13.50;;
20497;SDS011;10407;53.238;10.448;2023-06-22T05:55:03;95.33;;;12.57;;
20497;SDS011;10407;53.238;10.448;2023-06-22T05:57:30;99.27;;;13.77;;
20497;SDS011;10407;53.238;10.448;2023-06-22T05:59:58;91.07;;;12.90;;
20497;SDS011;10407;53.238;10.448;2023-06-22T06:02:25;92.10;;;11.13;;
20497;SDS011;10407;53.238;10.448;2023-06-22T06:04:53;89.87;;;11.80;;
20497;SDS011;10407;53.238;10.448;2023-06-22T06:07:20;92.90;;;12.03;;
20497;SDS011;10407;53.238;10.448;2023-06-22T06:09:48;93.67;;;11.97;;
20497;SDS011;10407;53.238;10.448;2023-06-22T06:12:16;92.30;;;11.47;;
20497;SDS011;10407;53.238;10.448;2023-06-22T06:14:43;93.80;;;10.97;;
20497;SDS011;10407;53.238;10.448;2023-06-22T06:17:11;90.83;;;9.83;;
20497;SDS011;10407;53.238;10.448;2023-06-22T06:19:39;91.40;;;10.20;;
20497;SDS011;10407;53.238;10.448;2023-06-22T06:22:06;89.90;;;10.50;;
20497;SDS011;10407;53.238;10.448;2023-06-22T06:24:34;90.33;;;9.93;;
20497;SDS011;10407;53.238;10.448;2023-06-22T06:27:01;89.00;;;9.10;;
20497;SDS011;10407;53.238;10.448;2023-06-22T06:29:31;88.30;;;10.03;;
20497;SDS011;10407;53.238;10.448;2023-06-22T06:31:58;89.07;;;9.27;;
20497;SDS011;10407;53.238;10.448;2023-06-22T06:34:26;92.73;;;10.50;;
20497;SDS011;10407;53.238;10.448;2023-06-22T06:36:53;89.37;;;10.67;;
20497;SDS011;10407;53.238;10.448;2023-06-22T06:39:21;89.13;;;10.73;;
20497;SDS011;10407;53.238;10.448;2023-06-22T06:41:49;92.23;;;11.30;;
20497;SDS011;10407;53.238;10.448;2023-06-22T06:44:16;89.37;;;10.80;;
20497;SDS011;10407;53.238;10.448;2023-06-22T06:46:44;92.23;;;9.63;;
20497;SDS011;10407;53.238;10.448;2023-06-22T06:49:11;88.50;;;8.67;;
20497;SDS011;10407;53.238;10.448;2023-06-22T06:51:39;90.00;;;9.03;;
20497;SDS011;10407;53.238;10.448;2023-06-22T06:54:06;88.80;;;9.17;;
20497;SDS011;10407;53.238;10.448;2023-06-22T06:56:34;88.30;;;9.07;;
20497;SDS011;10407;53.238;10.448;2023-06-22T06:59:02;89.57;;;9.57;;
20497;SDS011;10407;53.238;10.448;2023-06-22T07:01:29;89.50;;;9.50;;
20497;SDS011;10407;53.238;10.448;2023-06-22T07:03:59;90.20;;;9.50;;
20497;SDS011;10407;53.238;10.448;2023-06-22T07:06:27;89.73;;;9.60;;
20497;SDS011;10407;53.238;10.448;2023-06-22T07:08:56;89.90;;;9.17;;
20497;SDS011;10407;53.238;10.448;2023-06-22T07:11:23;90.57;;;8.87;;
20497;SDS011;10407;53.238;10.448;2023-06-22T07:13:51;94.23;;;9.73;;
20497;SDS011;10407;53.238;10.448;2023-06-22T07:16:18;92.73;;;9.27;;
20497;SDS011;10407;53.238;10.448;2023-06-22T07:18:46;90.43;;;9.67;;
20497;SDS011;10407;53.238;10.448;2023-06-22T07:21:14;89.17;;;9.97;;
20497;SDS011;10407;53.238;10.448;2023-06-22T07:23:41;88.87;;;9.97;;
20497;SDS011;10407;53.238;10.448;2023-06-22T07:26:09;91.37;;;11.33;;
20497;SDS011;10407;53.238;10.448;2023-06-22T07:28:38;89.07;;;9.87;;
20497;SDS011;10407;53.238;10.448;2023-06-22T07:31:06;89.27;;;11.00;;
20497;SDS011;10407;53.238;10.448;2023-06-22T07:33:34;90.20;;;10.73;;
20497;SDS011;10407;53.238;10.448;2023-06-22T07:36:02;88.90;;;10.43;;
20497;SDS011;10407;53.238;10.448;2023-06-22T07:38:31;91.00;;;10.97;;
20497;SDS011;10407;53.238;10.448;2023-06-22T07:40:59;94.93;;;11.60;;
20497;SDS011;10407;53.238;10.448;2023-06-22T07:43:26;92.13;;;9.70;;
20497;SDS011;10407;53.238;10.448;2023-06-22T07:45:55;95.37;;;13.80;;
20497;SDS011;10407;53.238;10.448;2023-06-22T07:48:23;88.90;;;10.53;;
20497;SDS011;10407;53.238;10.448;2023-06-22T07:50:50;101.40;;;11.50;;
20497;SDS011;10407;53.238;10.448;2023-06-22T07:53:19;90.07;;;10.33;;
20497;SDS011;10407;53.238;10.448;2023-06-22T07:55:47;90.20;;;11.00;;
20497;SDS011;10407;53.238;10.448;2023-06-22T07:58:15;90.23;;;9.93;;
20497;SDS011;10407;53.238;10.448;2023-06-22T08:00:44;89.67;;;9.80;;
20497;SDS011;10407;53.238;10.448;2023-06-22T08:03:12;87.73;;;9.40;;
20497;SDS011;10407;53.238;10.448;2023-06-22T08:05:39;90.40;;;10.43;;
20497;SDS011;10407;53.238;10.448;2023-06-22T08:08:07;89.63;;;8.90;;
20497;SDS011;10407;53.238;10.448;2023-06-22T08:10:34;89.87;;;9.10;;
20497;SDS011;10407;53.238;10.448;2023-06-22T08:13:02;88.43;;;8.60;;
20497;SDS011;10407;53.238;10.448;2023-06-22T08:15:29;89.17;;;8.87;;
20497;SDS011;10407;53.238;10.448;2023-06-22T08:17:57;87.00;;;8.23;;
20497;SDS011;10407;53.238;10.448;2023-06-22T08:20:26;88.30;;;8.73;;
20497;SDS011;10407;53.238;10.448;2023-06-22T08:22:54;87.90;;;7.70;;
20497;SDS011;10407;53.238;10.448;2023-06-22T08:25:24;89.73;;;8.57;;
20497;SDS011;10407;53.238;10.448;2023-06-22T08:27:51;86.87;;;7.70;;
20497;SDS011;10407;53.238;10.448;2023-06-22T08:30:19;90.07;;;8.37;;
20497;SDS011;10407;53.238;10.448;2023-06-22T08:32:46;89.40;;;8.90;;
20497;SDS011;10407;53.238;10.448;2023-06-22T08:35:14;88.00;;;8.60;;
20497;SDS011;10407;53.238;10.448;2023-06-22T08:37:41;89.83;;;8.50;;
20497;SDS011;10407;53.238;10.448;2023-06-22T08:40:09;88.00;;;8.63;;
20497;SDS011;10407;53.238;10.448;2023-06-22T08:42:37;88.10;;;8.40;;
20497;SDS011;10407;53.238;10.448;2023-06-22T08:45:07;89.90;;;8.87;;
20497;SDS011;10407;53.238;10.448;2023-06-22T08:47:35;87.93;;;8.60;;
20497;SDS011;10407;53.238;10.448;2023-06-22T08:50:03;87.40;;;7.97;;
20497;SDS011;10407;53.238;10.448;2023-06-22T08:52:32;89.00;;;8.90;;
20497;SDS011;10407;53.238;10.448;2023-06-22T08:54:59;88.27;;;9.03;;
20497;SDS011;10407;53.238;10.448;2023-06-22T08:57:28;91.00;;;8.03;;
20497;SDS011;10407;53.238;10.448;2023-06-22T08:59:56;88.10;;;8.27;;
20497;SDS011;10407;53.238;10.448;2023-06-22T09:02:27;88.20;;;9.37;;
20497;SDS011;10407;53.238;10.448;2023-06-22T09:04:59;87.00;;;7.53;;
20497;SDS011;10407;53.238;10.448;2023-06-22T09:07:28;89.23;;;9.00;;
20497;SDS011;10407;53.238;10.448;2023-06-22T09:09:56;88.80;;;9.70;;
20497;SDS011;10407;53.238;10.448;2023-06-22T09:12:23;87.57;;;8.37;;
20497;SDS011;10407;53.238;10.448;2023-06-22T09:14:53;87.50;;;8.50;;
20497;SDS011;10407;53.238;10.448;2023-06-22T09:17:21;89.80;;;8.33;;
20497;SDS011;10407;53.238;10.448;2023-06-22T09:19:49;88.80;;;8.60;;
20497;SDS011;10407;53.238;10.448;2023-06-22T09:22:17;88.17;;;8.67;;
20497;SDS011;10407;53.238;10.448;2023-06-22T09:24:45;86.00;;;7.73;;
20497;SDS011;10407;53.238;10.448;2023-06-22T09:27:12;87.60;;;8.20;;
20497;SDS011;10407;53.238;10.448;2023-06-22T09:29:40;88.20;;;9.20;;
20497;SDS011;10407;53.238;10.448;2023-06-22T09:32:07;87.27;;;7.93;;
20497;SDS011;10407;53.238;10.448;2023-06-22T09:34:35;88.50;;;7.97;;
20497;SDS011;10407;53.238;10.448;2023-06-22T09:37:02;87.60;;;8.67;;
20497;SDS011;10407;53.238;10.448;2023-06-22T09:39:30;88.27;;;7.83;;
20497;SDS011;10407;53.238;10.448;2023-06-22T09:41:58;87.40;;;8.40;;
20497;SDS011;10407;53.238;10.448;2023-06-22T09:44:28;88.50;;;8.30;;
20497;SDS011;10407;53.238;10.448;2023-06-22T09:46:56;91.33;;;8.70;;
20497;SDS011;10407;53.238;10.448;2023-06-22T09:49:24;89.50;;;7.57;;
20497;SDS011;10407;53.238;10.448;2023-06-22T09:51:51;87.27;;;8.50;;
20497;SDS011;10407;53.238;10.448;2023-06-22T09:54:19;87.30;;;7.90;;
20497;SDS011;10407;53.238;10.448;2023-06-22T09:56:46;87.73;;;7.87;;
20497;SDS011;10407;53.238;10.448;2023-06-22T09:59:14;88.83;;;7.87;;
20497;SDS011;10407;53.238;10.448;2023-06-22T10:01:41;88.20;;;8.87;;
20497;SDS011;10407;53.238;10.448;2023-06-22T10:04:09;89.90;;;9.10;;
20497;SDS011;10407;53.238;10.448;2023-06-22T10:06:36;89.13;;;9.10;;
20497;SDS011;10407;53.238;10.448;2023-06-22T10:09:06;87.50;;;8.00;;
20497;SDS011;10407;53.238;10.448;2023-06-22T10:11:34;87.77;;;9.10;;
20497;SDS011;10407;53.238;10.448;2023-06-22T10:14:02;87.60;;;8.53;;
20497;SDS011;10407;53.238;10.448;2023-06-22T10:16:30;87.93;;;9.00;;
20497;SDS011;10407;53.238;10.448;2023-06-22T10:18:58;87.07;;;9.27;;
20497;SDS011;10407;53.238;10.448;2023-06-22T10:21:26;88.53;;;8.80;;
20497;SDS011;10407;53.238;10.448;2023-06-22T10:23:54;90.90;;;10.97;;
20497;SDS011;10407;53.238;10.448;2023-06-22T10:26:22;89.27;;;9.37;;
20497;SDS011;10407;53.238;10.448;2023-06-22T10:28:50;87.47;;;8.80;;
20497;SDS011;10407;53.238;10.448;2023-06-22T10:31:17;88.50;;;7.33;;
20497;SDS011;10407;53.238;10.448;2023-06-22T10:33:45;88.83;;;9.37;;
20497;SDS011;10407;53.238;10.448;2023-06-22T10:36:12;88.80;;;8.93;;
20497;SDS011;10407;53.238;10.448;2023-06-22T10:38:40;88.77;;;9.13;;
20497;SDS011;10407;53.238;10.448;2023-06-22T10:41:07;88.37;;;9.50;;
20497;SDS011;10407;53.238;10.448;2023-06-22T10:43:35;87.80;;;8.93;;
20497;SDS011;10407;53.238;10.448;2023-06-22T10:46:02;89.97;;;9.60;;
20497;SDS011;10407;53.238;10.448;2023-06-22T10:48:30;88.77;;;9.77;;
20497;SDS011;10407;53.238;10.448;2023-06-22T10:50:57;88.23;;;8.07;;
20497;SDS011;10407;53.238;10.448;2023-06-22T10:53:25;88.43;;;9.27;;
20497;SDS011;10407;53.238;10.448;2023-06-22T10:55:52;89.10;;;9.33;;
20497;SDS011;10407;53.238;10.448;2023-06-22T10:58:20;87.00;;;7.80;;
20497;SDS011;10407;53.238;10.448;2023-06-22T11:00:47;89.50;;;9.90;;
20497;SDS011;10407;53.238;10.448;2023-06-22T11:03:15;88.97;;;8.93;;
20497;SDS011;10407;53.238;10.448;2023-06-22T11:05:42;91.77;;;10.70;;
20497;SDS011;10407;53.238;10.448;2023-06-22T11:08:10;90.90;;;9.20;;
20497;SDS011;10407;53.238;10.448;2023-06-22T11:10:37;87.60;;;9.93;;
20497;SDS011;10407;53.238;10.448;2023-06-22T11:13:05;90.90;;;8.80;;
20497;SDS011;10407;53.238;10.448;2023-06-22T11:15:34;88.43;;;9.50;;
20497;SDS011;10407;53.238;10.448;2023-06-22T11:18:02;90.10;;;8.10;;
20497;SDS011;10407;53.238;10.448;2023-06-22T11:20:31;88.10;;;8.63;;
20497;SDS011;10407;53.238;10.448;2023-06-22T11:23:00;89.10;;;9.73;;
20497;SDS011;10407;53.238;10.448;2023-06-22T11:25:27;87.87;;;9.30;;
20497;SDS011;10407;53.238;10.448;2023-06-22T11:27:55;89.10;;;11.10;;
20497;SDS011;10407;53.238;10.448;2023-06-22T11:30:23;91.33;;;9.97;;
20497;SDS011;10407;53.238;10.448;2023-06-22T11:32:50;88.37;;;10.17;;
20497;SDS011;10407;53.238;10.448;2023-06-22T11:35:18;88.57;;;9.60;;
20497;SDS011;10407;53.238;10.448;2023-06-22T11:37:45;89.40;;;10.07;;
20497;SDS011;10407;53.238;10.448;2023-06-22T11:40:13;91.37;;;10.10;;
20497;SDS011;10407;53.238;10.448;2023-06-22T11:42:40;88.97;;;9.33;;
20497;SDS011;10407;53.238;10.448;2023-06-22T11:45:08;89.60;;;10.13;;
20497;SDS011;10407;53.238;10.448;2023-06-22T11:47:37;90.20;;;10.20;;
20497;SDS011;10407;53.238;10.448;2023-06-22T11:50:05;90.40;;;10.10;;
20497;SDS011;10407;53.238;10.448;2023-06-22T11:52:33;88.17;;;9.67;;
20497;SDS011;10407;53.238;10.448;2023-06-22T11:55:04;91.57;;;10.00;;
20497;SDS011;10407;53.238;10.448;2023-06-22T11:57:35;92.50;;;10.87;;
20497;SDS011;10407;53.238;10.448;2023-06-22T12:00:04;90.20;;;11.00;;
20497;SDS011;10407;53.238;10.448;2023-06-22T12:02:34;88.40;;;9.70;;
20497;SDS011;10407;53.238;10.448;2023-06-22T12:05:02;89.17;;;9.67;;
20497;SDS011;10407;53.238;10.448;2023-06-22T12:07:30;88.00;;;10.37;;
20497;SDS011;10407;53.238;10.448;2023-06-22T12:09:57;90.07;;;9.00;;
20497;SDS011;10407;53.238;10.448;2023-06-22T12:12:25;90.47;;;11.10;;
20497;SDS011;10407;53.238;10.448;2023-06-22T12:14:52;89.87;;;10.70;;
20497;SDS011;10407;53.238;10.448;2023-06-22T12:17:20;92.37;;;11.47;;
20497;SDS011;10407;53.238;10.448;2023-06-22T12:19:47;89.37;;;10.07;;
20497;SDS011;10407;53.238;10.448;2023-06-22T12:22:15;92.67;;;11.97;;
20497;SDS011;10407;53.238;10.448;2023-06-22T12:24:43;95.97;;;11.00;;
20497;SDS011;10407;53.238;10.448;2023-06-22T12:27:10;90.90;;;12.20;;
20497;SDS011;10407;53.238;10.448;2023-06-22T12:29:38;89.57;;;10.57;;
20497;SDS011;10407;53.238;10.448;2023-06-22T12:32:06;92.93;;;12.93;;
20497;SDS011;10407;53.238;10.448;2023-06-22T12:34:33;96.77;;;12.97;;
20497;SDS011;10407;53.238;10.448;2023-06-22T12:37:01;91.57;;;12.23;;
20497;SDS011;10407;53.238;10.448;2023-06-22T12:39:30;93.67;;;11.40;;
20497;SDS011;10407;53.238;10.448;2023-06-22T12:41:57;93.83;;;11.63;;
20497;SDS011;10407;53.238;10.448;2023-06-22T12:44:25;93.10;;;11.63;;
20497;SDS011;10407;53.238;10.448;2023-06-22T12:46:52;91.77;;;12.80;;
20497;SDS011;10407;53.238;10.448;2023-06-22T12:49:20;93.00;;;12.33;;
20497;SDS011;10407;53.238;10.448;2023-06-22T12:51:47;91.27;;;12.40;;
20497;SDS011;10407;53.238;10.448;2023-06-22T12:54:15;92.90;;;11.83;;
20497;SDS011;10407;53.238;10.448;2023-06-22T12:56:42;92.30;;;12.47;;
20497;SDS011;10407;53.238;10.448;2023-06-22T12:59:11;91.90;;;11.40;;
20497;SDS011;10407;53.238;10.448;2023-06-22T13:01:38;95.23;;;12.07;;
20497;SDS011;10407;53.238;10.448;2023-06-22T13:04:06;92.30;;;11.77;;
20497;SDS011;10407;53.238;10.448;2023-06-22T13:06:33;91.60;;;11.27;;
20497;SDS011;10407;53.238;10.448;2023-06-22T13:09:01;94.53;;;12.10;;
20497;SDS011;10407;53.238;10.448;2023-06-22T13:11:30;91.57;;;11.33;;
20497;SDS011;10407;53.238;10.448;2023-06-22T13:13:58;90.17;;;10.43;;
20497;SDS011;10407;53.238;10.448;2023-06-22T13:16:25;92.07;;;11.97;;
20497;SDS011;10407;53.238;10.448;2023-06-22T13:18:53;90.37;;;11.00;;
20497;SDS011;10407;53.238;10.448;2023-06-22T13:21:20;95.53;;;11.83;;
20497;SDS011;10407;53.238;10.448;2023-06-22T13:23:48;91.03;;;11.13;;
20497;SDS011;10407;53.238;10.448;2023-06-22T13:26:15;97.20;;;13.43;;
20497;SDS011;10407;53.238;10.448;2023-06-22T13:28:43;95.27;;;11.77;;
20497;SDS011;10407;53.238;10.448;2023-06-22T13:31:10;93.67;;;10.83;;
20497;SDS011;10407;53.238;10.448;2023-06-22T13:33:38;91.90;;;11.37;;
20497;SDS011;10407;53.238;10.448;2023-06-22T13:36:06;90.63;;;9.70;;
20497;SDS011;10407;53.238;10.448;2023-06-22T13:38:35;90.57;;;10.53;;
20497;SDS011;10407;53.238;10.448;2023-06-22T13:41:04;89.47;;;9.23;;
20497;SDS011;10407;53.238;10.448;2023-06-22T13:43:32;90.20;;;11.37;;
20497;SDS011;10407;53.238;10.448;2023-06-22T13:46:00;90.90;;;11.10;;
20497;SDS011;10407;53.238;10.448;2023-06-22T13:48:27;91.27;;;11.40;;
20497;SDS011;10407;53.238;10.448;2023-06-22T13:50:55;90.70;;;10.93;;
20497;SDS011;10407;53.238;10.448;2023-06-22T13:53:24;91.20;;;11.10;;
20497;SDS011;10407;53.238;10.448;2023-06-22T13:55:52;91.40;;;10.93;;
20497;SDS011;10407;53.238;10.448;2023-06-22T13:58:19;90.20;;;10.90;;
20497;SDS011;10407;53.238;10.448;2023-06-22T14:00:47;90.07;;;10.97;;
20497;SDS011;10407;53.238;10.448;2023-06-22T14:03:14;90.70;;;10.43;;
20497;SDS011;10407;53.238;10.448;2023-06-22T14:05:42;90.87;;;10.70;;
20497;SDS011;10407;53.238;10.448;2023-06-22T14:08:10;96.50;;;11.70;;
20497;SDS011;10407;53.238;10.448;2023-06-22T14:10:38;90.97;;;11.13;;
20497;SDS011;10407;53.238;10.448;2023-06-22T14:13:06;91.53;;;11.97;;
20497;SDS011;10407;53.238;10.448;2023-06-22T14:15:33;90.93;;;11.30;;
20497;SDS011;10407;53.238;10.448;2023-06-22T14:18:01;91.47;;;10.80;;
20497;SDS011;10407;53.238;10.448;2023-06-22T14:20:28;90.30;;;10.90;;
20497;SDS011;10407;53.238;10.448;2023-06-22T14:22:56;89.07;;;10.57;;
20497;SDS011;10407;53.238;10.448;2023-06-22T14:25:23;91.03;;;11.00;;
20497;SDS011;10407;53.238;10.448;2023-06-22T14:27:51;89.97;;;10.80;;
20497;SDS011;10407;53.238;10.448;2023-06-22T14:30:18;92.70;;;12.50;;
20497;SDS011;10407;53.238;10.448;2023-06-22T14:32:46;92.00;;;11.67;;
20497;SDS011;10407;53.238;10.448;2023-06-22T14:35:13;90.47;;;11.53;;